sensor_id;sensor_type;location;lat;lon;timestamp;pressure;altitude;pressure_sealevel;temperature;humidity
62462;BME280;48511;38.664;-9.202;2023-01-10T00:01:22;50118.84;;;-146.63;84.84
62462;BME280;48511;38.664;-9.202;2023-01-10T00:03:22;50126.75;;;-146.63;84.73
62462;BME280;48511;38.664;-9.202;2023-01-10T00:05:23;50087.28;;;-146.63;84.79
62462;BME280;48511;38.664;-9.202;2023-01-10T00:07:24;50122.78;;;-146.63;84.76
62462;BME280;48511;38.664;-9.202;2023-01-10T00:09:24;50093.19;;;-146.63;84.83
62462;BME280;48511;38.664;-9.202;2023-01-10T00:11:25;50110.94;;;-146.63;84.90
62462;BME280;48511;38.664;-9.202;2023-01-10T00:13:45;50120.81;;;-146.63;85.03
62462;BME280;48511;38.664;-9.202;2023-01-10T00:15:46;50114.91;;;-146.63;84.98
62462;BME280;48511;38.664;-9.202;2023-01-10T00:17:47;50089.25;;;-146.63;85.02
62462;BME280;48511;38.664;-9.202;2023-01-10T00:19:48;50091.22;;;-146.63;84.89
62462;BME280;48511;38.664;-9.202;2023-01-10T00:21:48;50110.94;;;-146.63;85.12
62462;BME280;48511;38.664;-9.202;2023-01-10T00:23:49;50134.63;;;-146.63;85.04
62462;BME280;48511;38.664;-9.202;2023-01-10T00:25:50;50095.16;;;-146.63;85.10
62462;BME280;48511;38.664;-9.202;2023-01-10T00:27:54;50112.94;;;-146.63;85.10
62462;BME280;48511;38.664;-9.202;2023-01-10T00:30:18;50107.00;;;-146.63;85.21
62462;BME280;48511;38.664;-9.202;2023-01-10T00:32:20;50134.63;;;-146.63;85.37
62462;BME280;48511;38.664;-9.202;2023-01-10T00:34:21;50110.94;;;-146.63;85.40
62462;BME280;48511;38.664;-9.202;2023-01-10T00:36:22;50134.63;;;-146.63;85.48
62462;BME280;48511;38.664;-9.202;2023-01-10T00:38:23;50114.91;;;-146.63;85.47
62462;BME280;48511;38.664;-9.202;2023-01-10T00:40:23;50126.75;;;-146.63;85.51
62462;BME280;48511;38.664;-9.202;2023-01-10T00:42:24;50138.59;;;-146.63;85.27
62462;BME280;48511;38.664;-9.202;2023-01-10T00:44:43;50130.69;;;-146.63;85.33
62462;BME280;48511;38.664;-9.202;2023-01-10T00:46:46;50134.63;;;-146.63;85.37
62462;BME280;48511;38.664;-9.202;2023-01-10T00:48:47;50108.97;;;-146.63;85.25
62462;BME280;48511;38.664;-9.202;2023-01-10T00:50:47;50138.59;;;-146.63;85.06
62462;BME280;48511;38.664;-9.202;2023-01-10T00:52:48;50122.78;;;-146.63;85.33
62462;BME280;48511;38.664;-9.202;2023-01-10T00:54:49;50112.94;;;-146.63;85.12
62462;BME280;48511;38.664;-9.202;2023-01-10T00:56:50;50108.97;;;-146.63;85.21
62462;BME280;48511;38.664;-9.202;2023-01-10T00:58:51;50146.47;;;-146.63;84.90
62462;BME280;48511;38.664;-9.202;2023-01-10T01:00:52;50095.16;;;-146.63;85.04
62462;BME280;48511;38.664;-9.202;2023-01-10T01:02:52;50107.00;;;-146.63;85.15
62462;BME280;48511;38.664;-9.202;2023-01-10T01:04:54;50134.63;;;-146.63;85.30
62462;BME280;48511;38.664;-9.202;2023-01-10T01:06:54;50138.59;;;-146.63;85.31
62462;BME280;48511;38.664;-9.202;2023-01-10T01:08:55;50095.16;;;-146.63;85.11
62462;BME280;48511;38.664;-9.202;2023-01-10T01:10:56;50055.69;;;-146.63;85.27
62462;BME280;48511;38.664;-9.202;2023-01-10T01:12:58;50099.09;;;-146.63;85.21
62462;BME280;48511;38.664;-9.202;2023-01-10T01:14:59;50185.97;;;-146.63;84.96
62462;BME280;48511;38.664;-9.202;2023-01-10T01:17:00;50099.09;;;-146.63;84.43
62462;BME280;48511;38.664;-9.202;2023-01-10T01:19:01;50142.53;;;-146.63;84.55
62462;BME280;48511;38.664;-9.202;2023-01-10T01:21:02;50120.81;;;-146.63;84.92
62462;BME280;48511;38.664;-9.202;2023-01-10T01:23:04;50118.84;;;-146.63;85.13
62462;BME280;48511;38.664;-9.202;2023-01-10T01:25:06;50183.97;;;-146.63;85.53
62462;BME280;48511;38.664;-9.202;2023-01-10T01:27:07;50140.56;;;-146.63;85.54
62462;BME280;48511;38.664;-9.202;2023-01-10T01:29:08;50130.69;;;-146.63;85.49
62462;BME280;48511;38.664;-9.202;2023-01-10T01:31:09;50093.19;;;-146.63;85.65
62462;BME280;48511;38.664;-9.202;2023-01-10T01:33:09;50132.66;;;-146.63;85.68
62462;BME280;48511;38.664;-9.202;2023-01-10T01:35:13;50138.59;;;-146.63;85.28
62462;BME280;48511;38.664;-9.202;2023-01-10T01:37:15;50118.84;;;-146.63;85.36
62462;BME280;48511;38.664;-9.202;2023-01-10T01:39:16;50122.78;;;-146.63;85.46
62462;BME280;48511;38.664;-9.202;2023-01-10T01:41:17;50128.72;;;-146.63;85.79
62462;BME280;48511;38.664;-9.202;2023-01-10T01:44:00;50110.94;;;-146.63;85.76
62462;BME280;48511;38.664;-9.202;2023-01-10T01:46:02;50087.28;;;-146.63;85.68
62462;BME280;48511;38.664;-9.202;2023-01-10T01:50:31;50148.47;;;-146.63;85.76
62462;BME280;48511;38.664;-9.202;2023-01-10T01:52:34;50126.75;;;-146.63;85.78
62462;BME280;48511;38.664;-9.202;2023-01-10T01:54:36;50134.63;;;-146.63;86.06
62462;BME280;48511;38.664;-9.202;2023-01-10T01:56:41;50142.53;;;-146.63;86.04
62462;BME280;48511;38.664;-9.202;2023-01-10T01:59:02;50144.50;;;-146.63;86.20
62462;BME280;48511;38.664;-9.202;2023-01-10T02:01:06;50138.59;;;-146.63;86.44
62462;BME280;48511;38.664;-9.202;2023-01-10T02:03:07;50118.84;;;-146.63;86.29
62462;BME280;48511;38.664;-9.202;2023-01-10T02:05:10;50134.63;;;-146.63;86.38
62462;BME280;48511;38.664;-9.202;2023-01-10T02:07:12;50083.31;;;-146.63;86.09
62462;BME280;48511;38.664;-9.202;2023-01-10T02:09:32;50120.81;;;-146.63;85.98
62462;BME280;48511;38.664;-9.202;2023-01-10T02:11:34;50138.59;;;-146.63;85.89
62462;BME280;48511;38.664;-9.202;2023-01-10T02:13:39;50118.84;;;-146.63;85.81
62462;BME280;48511;38.664;-9.202;2023-01-10T02:15:41;50142.53;;;-146.63;85.65
62462;BME280;48511;38.664;-9.202;2023-01-10T02:17:41;50118.84;;;-146.63;85.51
62462;BME280;48511;38.664;-9.202;2023-01-10T02:24:42;50087.28;;;-146.63;85.59
62462;BME280;48511;38.664;-9.202;2023-01-10T02:27:05;50116.88;;;-146.63;85.50
62462;BME280;48511;38.664;-9.202;2023-01-10T02:38:39;50114.91;;;-146.63;86.00
62462;BME280;48511;38.664;-9.202;2023-01-10T02:41:08;50150.44;;;-146.63;86.09
62462;BME280;48511;38.664;-9.202;2023-01-10T02:43:17;50120.81;;;-146.63;86.04
62462;BME280;48511;38.664;-9.202;2023-01-10T02:45:35;50124.78;;;-146.63;85.94
62462;BME280;48511;38.664;-9.202;2023-01-10T02:47:39;50144.50;;;-146.63;85.94
62462;BME280;48511;38.664;-9.202;2023-01-10T02:49:49;50114.91;;;-146.63;86.17
62462;BME280;48511;38.664;-9.202;2023-01-10T02:51:49;50144.50;;;-146.63;86.15
62462;BME280;48511;38.664;-9.202;2023-01-10T02:53:59;50158.31;;;-146.63;86.12
62462;BME280;48511;38.664;-9.202;2023-01-10T02:58:58;50122.78;;;-146.63;86.13
62462;BME280;48511;38.664;-9.202;2023-01-10T03:03:39;50114.91;;;-146.63;86.12
62462;BME280;48511;38.664;-9.202;2023-01-10T03:05:57;50118.84;;;-146.63;86.21
62462;BME280;48511;38.664;-9.202;2023-01-10T03:08:28;50136.63;;;-146.63;86.11
62462;BME280;48511;38.664;-9.202;2023-01-10T03:10:37;50114.91;;;-146.63;86.10
62462;BME280;48511;38.664;-9.202;2023-01-10T03:12:52;50136.63;;;-146.63;86.16
62462;BME280;48511;38.664;-9.202;2023-01-10T03:14:58;50099.09;;;-146.63;86.09
62462;BME280;48511;38.664;-9.202;2023-01-10T03:17:06;50128.72;;;-146.63;86.32
62462;BME280;48511;38.664;-9.202;2023-01-10T03:19:18;50122.78;;;-146.63;86.01
62462;BME280;48511;38.664;-9.202;2023-01-10T03:21:24;50110.94;;;-146.63;86.19
62462;BME280;48511;38.664;-9.202;2023-01-10T03:23:26;50130.69;;;-146.63;86.25
62462;BME280;48511;38.664;-9.202;2023-01-10T03:25:31;50128.72;;;-146.63;86.33
62462;BME280;48511;38.664;-9.202;2023-01-10T03:27:54;50148.47;;;-146.63;86.32
62462;BME280;48511;38.664;-9.202;2023-01-10T03:30:09;50178.06;;;-146.63;86.38
62462;BME280;48511;38.664;-9.202;2023-01-10T03:32:16;50091.22;;;-146.63;86.73
62462;BME280;48511;38.664;-9.202;2023-01-10T03:34:21;50108.97;;;-146.63;86.75
62462;BME280;48511;38.664;-9.202;2023-01-10T03:36:44;50134.63;;;-146.63;87.15
62462;BME280;48511;38.664;-9.202;2023-01-10T03:41:07;50087.28;;;-146.63;87.17
62462;BME280;48511;38.664;-9.202;2023-01-10T03:43:20;50099.09;;;-146.63;87.16
62462;BME280;48511;38.664;-9.202;2023-01-10T03:45:54;50122.78;;;-146.63;87.52
62462;BME280;48511;38.664;-9.202;2023-01-10T03:48:01;50107.00;;;-146.63;87.98
62462;BME280;48511;38.664;-9.202;2023-01-10T03:52:10;50146.47;;;-146.63;88.20
62462;BME280;48511;38.664;-9.202;2023-01-10T03:54:14;50083.31;;;-146.63;88.01
62462;BME280;48511;38.664;-9.202;2023-01-10T03:56:16;50124.78;;;-146.63;87.97
62462;BME280;48511;38.664;-9.202;2023-01-10T03:58:17;50118.84;;;-146.63;87.93
62462;BME280;48511;38.664;-9.202;2023-01-10T04:00:21;50126.75;;;-146.63;87.97
62462;BME280;48511;38.664;-9.202;2023-01-10T04:02:28;50142.53;;;-146.63;88.00
62462;BME280;48511;38.664;-9.202;2023-01-10T04:04:30;50118.84;;;-146.63;87.97
62462;BME280;48511;38.664;-9.202;2023-01-10T04:06:31;50107.00;;;-146.63;88.02
62462;BME280;48511;38.664;-9.202;2023-01-10T04:08:32;50154.38;;;-146.63;88.38
62462;BME280;48511;38.664;-9.202;2023-01-10T04:10:33;50118.84;;;-146.63;88.23
62462;BME280;48511;38.664;-9.202;2023-01-10T04:12:34;50126.75;;;-146.63;88.35
62462;BME280;48511;38.664;-9.202;2023-01-10T04:14:34;50146.47;;;-146.63;88.43
62462;BME280;48511;38.664;-9.202;2023-01-10T04:16:35;50075.44;;;-146.63;88.44
62462;BME280;48511;38.664;-9.202;2023-01-10T04:18:36;50142.53;;;-146.63;88.57
62462;BME280;48511;38.664;-9.202;2023-01-10T04:20:37;50140.56;;;-146.63;88.61
62462;BME280;48511;38.664;-9.202;2023-01-10T04:22:37;50112.94;;;-146.63;88.75
62462;BME280;48511;38.664;-9.202;2023-01-10T04:24:38;50108.97;;;-146.63;88.75
62462;BME280;48511;38.664;-9.202;2023-01-10T04:26:39;50110.94;;;-146.63;88.78
62462;BME280;48511;38.664;-9.202;2023-01-10T04:28:40;50103.06;;;-146.63;89.09
62462;BME280;48511;38.664;-9.202;2023-01-10T04:30:41;50110.94;;;-146.63;88.99
62462;BME280;48511;38.664;-9.202;2023-01-10T04:32:41;50134.63;;;-146.63;89.00
62462;BME280;48511;38.664;-9.202;2023-01-10T04:34:42;50110.94;;;-146.63;89.16
62462;BME280;48511;38.664;-9.202;2023-01-10T04:36:43;50132.66;;;-146.63;89.15
62462;BME280;48511;38.664;-9.202;2023-01-10T04:38:43;50144.50;;;-146.63;89.26
62462;BME280;48511;38.664;-9.202;2023-01-10T04:40:51;50126.75;;;-146.63;89.32
62462;BME280;48511;38.664;-9.202;2023-01-10T04:42:52;50101.09;;;-146.63;89.38
62462;BME280;48511;38.664;-9.202;2023-01-10T04:44:53;50107.00;;;-146.63;89.59
62462;BME280;48511;38.664;-9.202;2023-01-10T04:46:54;50114.91;;;-146.63;89.88
62462;BME280;48511;38.664;-9.202;2023-01-10T04:48:54;50124.78;;;-146.63;89.70
62462;BME280;48511;38.664;-9.202;2023-01-10T04:50:55;50144.50;;;-146.63;89.83
62462;BME280;48511;38.664;-9.202;2023-01-10T04:52:56;50105.03;;;-146.63;90.05
62462;BME280;48511;38.664;-9.202;2023-01-10T04:54:57;50126.75;;;-146.63;90.04
62462;BME280;48511;38.664;-9.202;2023-01-10T04:56:57;50116.88;;;-146.63;90.14
62462;BME280;48511;38.664;-9.202;2023-01-10T04:58:58;50136.63;;;-146.63;90.18
62462;BME280;48511;38.664;-9.202;2023-01-10T05:00:59;50081.34;;;-146.63;90.26
62462;BME280;48511;38.664;-9.202;2023-01-10T05:03:00;50107.00;;;-146.63;90.19
62462;BME280;48511;38.664;-9.202;2023-01-10T05:05:00;50132.66;;;-146.63;90.32
62462;BME280;48511;38.664;-9.202;2023-01-10T05:07:01;50107.00;;;-146.63;90.25
62462;BME280;48511;38.664;-9.202;2023-01-10T05:09:02;50114.91;;;-146.63;90.40
62462;BME280;48511;38.664;-9.202;2023-01-10T05:11:03;50118.84;;;-146.63;90.17
62462;BME280;48511;38.664;-9.202;2023-01-10T05:13:04;50142.53;;;-146.63;90.41
62462;BME280;48511;38.664;-9.202;2023-01-10T05:15:05;50114.91;;;-146.63;90.65
62462;BME280;48511;38.664;-9.202;2023-01-10T05:17:06;50107.00;;;-146.63;90.70
62462;BME280;48511;38.664;-9.202;2023-01-10T05:19:07;50132.66;;;-146.63;90.55
62462;BME280;48511;38.664;-9.202;2023-01-10T05:21:09;50122.78;;;-146.63;90.71
62462;BME280;48511;38.664;-9.202;2023-01-10T05:23:10;50150.44;;;-146.63;90.87
62462;BME280;48511;38.664;-9.202;2023-01-10T05:25:11;50152.41;;;-146.63;90.96
62462;BME280;48511;38.664;-9.202;2023-01-10T05:27:12;50152.41;;;-146.63;91.11
62462;BME280;48511;38.664;-9.202;2023-01-10T05:29:13;50116.88;;;-146.63;91.02
62462;BME280;48511;38.664;-9.202;2023-01-10T05:31:18;50148.47;;;-146.63;90.97
62462;BME280;48511;38.664;-9.202;2023-01-10T05:33:19;50110.94;;;-146.63;90.96
62462;BME280;48511;38.664;-9.202;2023-01-10T05:35:19;50130.69;;;-146.63;91.01
62462;BME280;48511;38.664;-9.202;2023-01-10T05:37:20;50122.78;;;-146.63;91.54
62462;BME280;48511;38.664;-9.202;2023-01-10T05:39:21;50130.69;;;-146.63;91.70
62462;BME280;48511;38.664;-9.202;2023-01-10T05:41:22;50103.06;;;-146.63;91.69
62462;BME280;48511;38.664;-9.202;2023-01-10T05:43:23;50130.69;;;-146.63;91.59
62462;BME280;48511;38.664;-9.202;2023-01-10T05:45:24;50120.81;;;-146.63;91.54
62462;BME280;48511;38.664;-9.202;2023-01-10T05:47:25;50178.06;;;-146.63;91.67
62462;BME280;48511;38.664;-9.202;2023-01-10T05:49:26;50116.88;;;-146.63;91.56
62462;BME280;48511;38.664;-9.202;2023-01-10T05:51:27;50128.72;;;-146.63;91.50
62462;BME280;48511;38.664;-9.202;2023-01-10T05:53:28;50142.53;;;-146.63;91.73
62462;BME280;48511;38.664;-9.202;2023-01-10T05:55:28;50146.47;;;-146.63;91.67
62462;BME280;48511;38.664;-9.202;2023-01-10T05:57:29;50132.66;;;-146.63;91.84
62462;BME280;48511;38.664;-9.202;2023-01-10T05:59:30;50118.84;;;-146.63;91.92
62462;BME280;48511;38.664;-9.202;2023-01-10T06:01:30;50110.94;;;-146.63;92.14
62462;BME280;48511;38.664;-9.202;2023-01-10T06:03:31;50114.91;;;-146.63;92.10
62462;BME280;48511;38.664;-9.202;2023-01-10T06:05:32;50136.63;;;-146.63;92.14
62462;BME280;48511;38.664;-9.202;2023-01-10T06:07:33;50105.03;;;-146.63;92.33
62462;BME280;48511;38.664;-9.202;2023-01-10T06:09:33;50138.59;;;-146.63;92.30
62462;BME280;48511;38.664;-9.202;2023-01-10T06:11:34;50126.75;;;-146.63;92.46
62462;BME280;48511;38.664;-9.202;2023-01-10T06:13:38;50114.91;;;-146.63;92.42
62462;BME280;48511;38.664;-9.202;2023-01-10T06:15:38;50162.28;;;-146.63;92.55
62462;BME280;48511;38.664;-9.202;2023-01-10T06:17:39;50150.44;;;-146.63;92.64
62462;BME280;48511;38.664;-9.202;2023-01-10T06:19:40;50142.53;;;-146.63;92.92
62462;BME280;48511;38.664;-9.202;2023-01-10T06:21:41;50162.28;;;-146.63;92.83
62462;BME280;48511;38.664;-9.202;2023-01-10T06:23:41;50118.84;;;-146.63;92.79
62462;BME280;48511;38.664;-9.202;2023-01-10T06:25:42;50148.47;;;-146.63;92.94
62462;BME280;48511;38.664;-9.202;2023-01-10T06:27:43;50150.44;;;-146.63;92.89
62462;BME280;48511;38.664;-9.202;2023-01-10T06:29:44;50154.38;;;-146.63;92.86
62462;BME280;48511;38.664;-9.202;2023-01-10T06:31:45;50154.38;;;-146.63;92.92
62462;BME280;48511;38.664;-9.202;2023-01-10T06:33:45;50162.28;;;-146.63;93.01
62462;BME280;48511;38.664;-9.202;2023-01-10T06:35:49;50152.41;;;-146.63;93.10
62462;BME280;48511;38.664;-9.202;2023-01-10T06:37:50;50148.47;;;-146.63;93.01
62462;BME280;48511;38.664;-9.202;2023-01-10T06:39:51;50128.72;;;-146.63;93.16
62462;BME280;48511;38.664;-9.202;2023-01-10T06:41:51;50150.44;;;-146.63;93.07
62462;BME280;48511;38.664;-9.202;2023-01-10T06:43:52;50136.63;;;-146.63;93.18
62462;BME280;48511;38.664;-9.202;2023-01-10T06:45:53;50132.66;;;-146.63;93.32
62462;BME280;48511;38.664;-9.202;2023-01-10T06:47:53;50122.78;;;-146.63;93.27
62462;BME280;48511;38.664;-9.202;2023-01-10T06:49:54;50146.47;;;-146.63;93.33
62462;BME280;48511;38.664;-9.202;2023-01-10T06:51:55;50124.78;;;-146.63;93.17
62462;BME280;48511;38.664;-9.202;2023-01-10T06:53:55;50118.84;;;-146.63;93.30
62462;BME280;48511;38.664;-9.202;2023-01-10T06:55:56;50116.88;;;-146.63;93.15
62462;BME280;48511;38.664;-9.202;2023-01-10T06:58:02;50138.59;;;-146.63;93.20
62462;BME280;48511;38.664;-9.202;2023-01-10T07:00:05;50142.53;;;-146.63;93.30
62462;BME280;48511;38.664;-9.202;2023-01-10T07:02:09;50126.75;;;-146.63;93.35
62462;BME280;48511;38.664;-9.202;2023-01-10T07:04:11;50132.66;;;-146.63;93.57
62462;BME280;48511;38.664;-9.202;2023-01-10T07:06:12;50116.88;;;-146.63;93.45
62462;BME280;48511;38.664;-9.202;2023-01-10T07:08:13;50142.53;;;-146.63;93.58
62462;BME280;48511;38.664;-9.202;2023-01-10T07:10:14;50203.72;;;-146.63;93.56
62462;BME280;48511;38.664;-9.202;2023-01-10T07:12:14;50112.94;;;-146.63;93.61
62462;BME280;48511;38.664;-9.202;2023-01-10T07:14:15;50134.63;;;-146.63;93.58
62462;BME280;48511;38.664;-9.202;2023-01-10T07:16:16;50144.50;;;-146.63;93.60
62462;BME280;48511;38.664;-9.202;2023-01-10T07:18:17;50152.41;;;-146.63;93.52
62462;BME280;48511;38.664;-9.202;2023-01-10T07:20:19;50150.44;;;-146.63;93.54
62462;BME280;48511;38.664;-9.202;2023-01-10T07:22:20;50156.34;;;-146.63;93.97
62462;BME280;48511;38.664;-9.202;2023-01-10T07:24:21;50138.59;;;-146.63;93.65
62462;BME280;48511;38.664;-9.202;2023-01-10T07:26:21;50146.47;;;-146.63;93.93
62462;BME280;48511;38.664;-9.202;2023-01-10T07:28:23;50150.44;;;-146.63;93.84
62462;BME280;48511;38.664;-9.202;2023-01-10T07:30:24;50146.47;;;-146.63;93.88
62462;BME280;48511;38.664;-9.202;2023-01-10T07:32:25;50142.53;;;-146.63;93.97
62462;BME280;48511;38.664;-9.202;2023-01-10T07:34:26;50156.34;;;-146.63;94.01
62462;BME280;48511;38.664;-9.202;2023-01-10T07:36:27;50174.13;;;-146.63;94.04
62462;BME280;48511;38.664;-9.202;2023-01-10T07:38:28;50134.63;;;-146.63;93.86
62462;BME280;48511;38.664;-9.202;2023-01-10T07:40:29;50166.22;;;-146.63;93.84
62462;BME280;48511;38.664;-9.202;2023-01-10T07:42:30;50162.28;;;-146.63;93.99
62462;BME280;48511;38.664;-9.202;2023-01-10T07:44:30;50156.34;;;-146.63;93.91
62462;BME280;48511;38.664;-9.202;2023-01-10T07:46:31;50118.84;;;-146.63;94.05
62462;BME280;48511;38.664;-9.202;2023-01-10T07:48:32;50193.84;;;-146.63;94.10
62462;BME280;48511;38.664;-9.202;2023-01-10T07:50:34;50142.53;;;-146.63;94.13
62462;BME280;48511;38.664;-9.202;2023-01-10T07:54:20;50191.88;;;-146.63;94.19
62462;BME280;48511;38.664;-9.202;2023-01-10T07:56:21;50150.44;;;-146.63;94.42
62462;BME280;48511;38.664;-9.202;2023-01-10T07:58:21;50158.31;;;-146.63;94.26
62462;BME280;48511;38.664;-9.202;2023-01-10T08:00:22;50150.44;;;-146.63;94.23
62462;BME280;48511;38.664;-9.202;2023-01-10T08:02:23;50130.69;;;-146.63;94.20
62462;BME280;48511;38.664;-9.202;2023-01-10T08:04:24;50170.16;;;-146.63;94.21
62462;BME280;48511;38.664;-9.202;2023-01-10T08:06:24;50114.91;;;-146.63;94.25
62462;BME280;48511;38.664;-9.202;2023-01-10T08:08:25;50146.47;;;-146.63;94.29
62462;BME280;48511;38.664;-9.202;2023-01-10T08:10:26;50126.75;;;-146.63;94.27
62462;BME280;48511;38.664;-9.202;2023-01-10T08:12:27;50148.47;;;-146.63;94.35
62462;BME280;48511;38.664;-9.202;2023-01-10T08:14:27;50140.56;;;-146.63;94.32
62462;BME280;48511;38.664;-9.202;2023-01-10T08:16:28;50110.94;;;-146.63;94.27
62462;BME280;48511;38.664;-9.202;2023-01-10T08:18:29;50166.22;;;-146.63;94.33
62462;BME280;48511;38.664;-9.202;2023-01-10T08:20:29;50136.63;;;-146.63;94.28
62462;BME280;48511;38.664;-9.202;2023-01-10T08:22:30;50134.63;;;-146.63;94.35
62462;BME280;48511;38.664;-9.202;2023-01-10T08:24:31;50168.19;;;-146.63;94.32
62462;BME280;48511;38.664;-9.202;2023-01-10T08:26:31;50110.94;;;-146.63;94.52
62462;BME280;48511;38.664;-9.202;2023-01-10T08:28:32;50150.44;;;-146.63;94.54
62462;BME280;48511;38.664;-9.202;2023-01-10T08:30:33;50134.63;;;-146.63;94.64
62462;BME280;48511;38.664;-9.202;2023-01-10T08:32:34;50166.22;;;-146.63;94.64
62462;BME280;48511;38.664;-9.202;2023-01-10T08:34:34;50118.84;;;-146.63;94.54
62462;BME280;48511;38.664;-9.202;2023-01-10T08:36:35;50136.63;;;-146.63;94.29
62462;BME280;48511;38.664;-9.202;2023-01-10T08:38:36;50122.78;;;-146.63;94.44
62462;BME280;48511;38.664;-9.202;2023-01-10T08:40:37;50142.53;;;-146.63;94.34
62462;BME280;48511;38.664;-9.202;2023-01-10T08:42:37;50110.94;;;-146.63;94.13
62462;BME280;48511;38.664;-9.202;2023-01-10T08:44:38;50110.94;;;-146.63;94.15
62462;BME280;48511;38.664;-9.202;2023-01-10T08:46:39;50170.16;;;-146.63;94.13
62462;BME280;48511;38.664;-9.202;2023-01-10T08:48:40;50152.41;;;-146.63;94.04
62462;BME280;48511;38.664;-9.202;2023-01-10T08:50:43;50152.41;;;-146.63;94.07
62462;BME280;48511;38.664;-9.202;2023-01-10T08:52:44;50130.69;;;-146.63;94.04
62462;BME280;48511;38.664;-9.202;2023-01-10T08:54:44;50142.53;;;-146.63;93.83
62462;BME280;48511;38.664;-9.202;2023-01-10T08:56:45;50108.97;;;-146.63;94.02
62462;BME280;48511;38.664;-9.202;2023-01-10T08:58:46;50114.91;;;-146.63;93.82
62462;BME280;48511;38.664;-9.202;2023-01-10T09:00:47;50134.63;;;-146.63;93.58
62462;BME280;48511;38.664;-9.202;2023-01-10T09:02:48;50136.63;;;-146.63;93.48
62462;BME280;48511;38.664;-9.202;2023-01-10T09:04:49;50178.06;;;-146.63;93.44
62462;BME280;48511;38.664;-9.202;2023-01-10T09:06:50;50114.91;;;-146.63;93.29
62462;BME280;48511;38.664;-9.202;2023-01-10T09:08:51;50126.75;;;-146.63;93.46
62462;BME280;48511;38.664;-9.202;2023-01-10T09:10:51;50128.72;;;-146.63;93.49
62462;BME280;48511;38.664;-9.202;2023-01-10T09:12:52;50124.78;;;-146.63;93.52
62462;BME280;48511;38.664;-9.202;2023-01-10T09:14:56;50142.53;;;-146.63;93.27
62462;BME280;48511;38.664;-9.202;2023-01-10T09:16:57;50120.81;;;-146.63;93.24
62462;BME280;48511;38.664;-9.202;2023-01-10T09:18:57;50142.53;;;-146.63;93.33
62462;BME280;48511;38.664;-9.202;2023-01-10T09:20:58;50182.00;;;-146.63;93.12
62462;BME280;48511;38.664;-9.202;2023-01-10T09:23:10;50116.88;;;-146.63;93.10
62462;BME280;48511;38.664;-9.202;2023-01-10T09:25:11;50176.09;;;-146.63;93.11
62462;BME280;48511;38.664;-9.202;2023-01-10T09:27:12;50154.38;;;-146.63;93.02
62462;BME280;48511;38.664;-9.202;2023-01-10T09:29:13;50146.47;;;-146.63;92.84
62462;BME280;48511;38.664;-9.202;2023-01-10T09:31:14;50134.63;;;-146.63;92.93
62462;BME280;48511;38.664;-9.202;2023-01-10T09:33:18;50122.78;;;-146.63;92.74
62462;BME280;48511;38.664;-9.202;2023-01-10T09:35:19;50144.50;;;-146.63;92.78
62462;BME280;48511;38.664;-9.202;2023-01-10T09:37:20;50154.38;;;-146.63;92.80
62462;BME280;48511;38.664;-9.202;2023-01-10T09:39:21;50107.00;;;-146.63;92.73
62462;BME280;48511;38.664;-9.202;2023-01-10T09:49:28;50128.72;;;-146.63;92.83
62462;BME280;48511;38.664;-9.202;2023-01-10T09:51:39;50103.06;;;-146.63;92.82
62462;BME280;48511;38.664;-9.202;2023-01-10T09:53:42;50146.47;;;-146.63;92.54
62462;BME280;48511;38.664;-9.202;2023-01-10T09:55:48;50130.69;;;-146.63;91.78
62462;BME280;48511;38.664;-9.202;2023-01-10T09:57:51;50126.75;;;-146.63;92.31
62462;BME280;48511;38.664;-9.202;2023-01-10T09:59:55;50118.84;;;-146.63;92.33
62462;BME280;48511;38.664;-9.202;2023-01-10T10:02:03;50103.06;;;-146.63;92.26
62462;BME280;48511;38.664;-9.202;2023-01-10T10:04:33;50140.56;;;-146.63;92.36
62462;BME280;48511;38.664;-9.202;2023-01-10T10:06:34;50154.38;;;-146.63;92.35
62462;BME280;48511;38.664;-9.202;2023-01-10T10:08:35;50134.63;;;-146.63;92.36
62462;BME280;48511;38.664;-9.202;2023-01-10T10:10:46;50150.44;;;-146.63;92.21
62462;BME280;48511;38.664;-9.202;2023-01-10T10:19:00;50142.53;;;-146.63;92.91
62462;BME280;48511;38.664;-9.202;2023-01-10T10:28:11;50168.19;;;-146.63;92.65
62462;BME280;48511;38.664;-9.202;2023-01-10T10:30:27;50183.97;;;-146.63;93.19
62462;BME280;48511;38.664;-9.202;2023-01-10T10:33:00;50174.13;;;-146.63;93.25
62462;BME280;48511;38.664;-9.202;2023-01-10T10:35:15;50142.53;;;-146.63;92.95
62462;BME280;48511;38.664;-9.202;2023-01-10T10:37:26;50154.38;;;-146.63;92.83
62462;BME280;48511;38.664;-9.202;2023-01-10T10:39:39;50178.06;;;-146.63;93.06
62462;BME280;48511;38.664;-9.202;2023-01-10T10:41:45;50146.47;;;-146.63;93.07
62462;BME280;48511;38.664;-9.202;2023-01-10T10:43:47;50130.69;;;-146.63;92.75
62462;BME280;48511;38.664;-9.202;2023-01-10T10:45:59;50138.59;;;-146.63;92.47
62462;BME280;48511;38.664;-9.202;2023-01-10T10:48:15;50136.63;;;-146.63;92.20
62462;BME280;48511;38.664;-9.202;2023-01-10T10:52:28;50148.47;;;-146.63;92.56
62462;BME280;48511;38.664;-9.202;2023-01-10T10:54:33;50162.28;;;-146.63;92.55
62462;BME280;48511;38.664;-9.202;2023-01-10T10:56:38;50146.47;;;-146.63;92.73
62462;BME280;48511;38.664;-9.202;2023-01-10T10:58:42;50118.84;;;-146.63;92.49
62462;BME280;48511;38.664;-9.202;2023-01-10T11:00:44;50130.69;;;-146.63;92.45
62462;BME280;48511;38.664;-9.202;2023-01-10T11:02:50;50146.47;;;-146.63;92.04
62462;BME280;48511;38.664;-9.202;2023-01-10T11:04:55;50201.75;;;-146.63;92.46
62462;BME280;48511;38.664;-9.202;2023-01-10T11:06:56;50146.47;;;-146.63;92.26
62462;BME280;48511;38.664;-9.202;2023-01-10T11:09:02;50193.84;;;-146.63;92.05
62462;BME280;48511;38.664;-9.202;2023-01-10T11:11:15;50140.56;;;-146.63;92.03
62462;BME280;48511;38.664;-9.202;2023-01-10T11:17:39;50146.47;;;-146.63;91.15
62462;BME280;48511;38.664;-9.202;2023-01-10T11:20:03;50134.63;;;-146.63;90.79
62462;BME280;48511;38.664;-9.202;2023-01-10T11:22:07;50130.69;;;-146.63;90.29
62462;BME280;48511;38.664;-9.202;2023-01-10T11:25:00;50122.78;;;-146.63;90.67
62462;BME280;48511;38.664;-9.202;2023-01-10T11:26:56;50154.38;;;-146.63;90.73